sensor_id;sensor_type;location;lat;lon;timestamp;P1;durP1;ratioP1;P2;durP2;ratioP2
43311;SDS011;30041;48.300;16.352;2024-02-16T00:00:08;0.25;;;0.25;;
43311;SDS011;30041;48.300;16.352;2024-02-16T00:02:38;0.95;;;0.30;;
43311;SDS011;30041;48.300;16.352;2024-02-16T00:05:05;0.55;;;0.35;;
43311;SDS011;30041;48.300;16.352;2024-02-16T00:07:32;0.60;;;0.40;;
43311;SDS011;30041;48.300;16.352;2024-02-16T00:09:58;0.73;;;0.30;;
43311;SDS011;30041;48.300;16.352;2024-02-16T00:12:24;0.55;;;0.25;;
43311;SDS011;30041;48.300;16.352;2024-02-16T00:14:49;0.30;;;0.30;;
43311;SDS011;30041;48.300;16.352;2024-02-16T00:17:15;0.22;;;0.20;;
43311;SDS011;30041;48.300;16.352;2024-02-16T00:19:41;0.30;;;0.30;;
43311;SDS011;30041;48.300;16.352;2024-02-16T00:22:07;0.40;;;0.40;;
43311;SDS011;30041;48.300;16.352;2024-02-16T00:24:33;0.52;;;0.40;;
43311;SDS011;30041;48.300;16.352;2024-02-16T00:26:59;0.63;;;0.30;;
43311;SDS011;30041;48.300;16.352;2024-02-16T00:29:25;0.35;;;0.30;;
43311;SDS011;30041;48.300;16.352;2024-02-16T00:31:51;0.38;;;0.20;;
43311;SDS011;30041;48.300;16.352;2024-02-16T00:34:17;0.47;;;0.25;;
43311;SDS011;30041;48.300;16.352;2024-02-16T00:36:42;0.40;;;0.30;;
43311;SDS011;30041;48.300;16.352;2024-02-16T00:39:08;0.38;;;0.30;;
43311;SDS011;30041;48.300;16.352;2024-02-16T00:41:34;0.28;;;0.28;;
43311;SDS011;30041;48.300;16.352;2024-02-16T00:43:59;0.47;;;0.30;;
43311;SDS011;30041;48.300;16.352;2024-02-16T00:46:25;0.50;;;0.20;;
43311;SDS011;30041;48.300;16.352;2024-02-16T00:48:51;0.50;;;0.40;;
43311;SDS011;30041;48.300;16.352;2024-02-16T00:51:17;0.52;;;0.30;;
43311;SDS011;30041;48.300;16.352;2024-02-16T00:53:44;0.32;;;0.30;;
43311;SDS011;30041;48.300;16.352;2024-02-16T00:56:09;0.50;;;0.30;;
43311;SDS011;30041;48.300;16.352;2024-02-16T00:58:35;0.52;;;0.38;;
43311;SDS011;30041;48.300;16.352;2024-02-16T01:01:01;0.40;;;0.25;;
43311;SDS011;30041;48.300;16.352;2024-02-16T01:03:29;0.55;;;0.25;;
43311;SDS011;30041;48.300;16.352;2024-02-16T01:05:54;0.35;;;0.22;;
43311;SDS011;30041;48.300;16.352;2024-02-16T01:08:20;0.50;;;0.30;;
43311;SDS011;30041;48.300;16.352;2024-02-16T01:10:46;0.40;;;0.30;;
43311;SDS011;30041;48.300;16.352;2024-02-16T01:13:12;0.50;;;0.20;;
43311;SDS011;30041;48.300;16.352;2024-02-16T01:15:37;0.55;;;0.40;;
43311;SDS011;30041;48.300;16.352;2024-02-16T01:18:04;0.20;;;0.20;;
43311;SDS011;30041;48.300;16.352;2024-02-16T01:20:30;0.30;;;0.28;;
43311;SDS011;30041;48.300;16.352;2024-02-16T01:22:55;0.40;;;0.30;;
43311;SDS011;30041;48.300;16.352;2024-02-16T01:25:22;0.50;;;0.35;;
43311;SDS011;30041;48.300;16.352;2024-02-16T01:27:47;0.20;;;0.20;;
43311;SDS011;30041;48.300;16.352;2024-02-16T01:30:13;0.57;;;0.30;;
43311;SDS011;30041;48.300;16.352;2024-02-16T01:32:39;0.77;;;0.20;;
43311;SDS011;30041;48.300;16.352;2024-02-16T01:35:04;0.40;;;0.32;;
43311;SDS011;30041;48.300;16.352;2024-02-16T01:37:30;0.55;;;0.30;;
43311;SDS011;30041;48.300;16.352;2024-02-16T01:39:56;0.50;;;0.20;;
43311;SDS011;30041;48.300;16.352;2024-02-16T01:42:22;0.35;;;0.22;;
43311;SDS011;30041;48.300;16.352;2024-02-16T01:44:48;0.47;;;0.32;;
43311;SDS011;30041;48.300;16.352;2024-02-16T01:47:14;0.40;;;0.30;;
43311;SDS011;30041;48.300;16.352;2024-02-16T01:49:41;0.52;;;0.40;;
43311;SDS011;30041;48.300;16.352;2024-02-16T01:52:06;0.35;;;0.22;;
43311;SDS011;30041;48.300;16.352;2024-02-16T01:54:32;0.77;;;0.50;;
43311;SDS011;30041;48.300;16.352;2024-02-16T01:56:58;0.40;;;0.30;;
43311;SDS011;30041;48.300;16.352;2024-02-16T01:59:25;0.57;;;0.45;;
43311;SDS011;30041;48.300;16.352;2024-02-16T02:01:52;0.68;;;0.40;;
43311;SDS011;30041;48.300;16.352;2024-02-16T02:04:17;0.43;;;0.30;;
43311;SDS011;30041;48.300;16.352;2024-02-16T02:06:43;0.55;;;0.40;;
43311;SDS011;30041;48.300;16.352;2024-02-16T02:09:09;0.28;;;0.20;;
43311;SDS011;30041;48.300;16.352;2024-02-16T02:11:34;0.43;;;0.30;;
43311;SDS011;30041;48.300;16.352;2024-02-16T02:14:00;0.40;;;0.30;;
43311;SDS011;30041;48.300;16.352;2024-02-16T02:16:26;0.20;;;0.20;;
43311;SDS011;30041;48.300;16.352;2024-02-16T02:18:52;0.57;;;0.35;;
43311;SDS011;30041;48.300;16.352;2024-02-16T02:21:17;0.45;;;0.30;;
43311;SDS011;30041;48.300;16.352;2024-02-16T02:23:43;0.47;;;0.32;;
43311;SDS011;30041;48.300;16.352;2024-02-16T02:26:09;0.30;;;0.20;;
43311;SDS011;30041;48.300;16.352;2024-02-16T02:28:34;0.30;;;0.20;;
43311;SDS011;30041;48.300;16.352;2024-02-16T02:31:00;0.35;;;0.30;;
43311;SDS011;30041;48.300;16.352;2024-02-16T02:33:26;0.40;;;0.30;;
43311;SDS011;30041;48.300;16.352;2024-02-16T02:35:52;0.30;;;0.30;;
43311;SDS011;30041;48.300;16.352;2024-02-16T02:38:17;0.32;;;0.20;;
43311;SDS011;30041;48.300;16.352;2024-02-16T02:40:43;0.32;;;0.30;;
43311;SDS011;30041;48.300;16.352;2024-02-16T02:43:09;0.30;;;0.25;;
43311;SDS011;30041;48.300;16.352;2024-02-16T02:45:35;0.50;;;0.40;;
43311;SDS011;30041;48.300;16.352;2024-02-16T02:48:01;0.50;;;0.20;;
43311;SDS011;30041;48.300;16.352;2024-02-16T02:50:27;0.52;;;0.30;;
43311;SDS011;30041;48.300;16.352;2024-02-16T02:52:52;0.30;;;0.20;;
43311;SDS011;30041;48.300;16.352;2024-02-16T02:55:18;0.20;;;0.20;;
43311;SDS011;30041;48.300;16.352;2024-02-16T02:57:44;0.40;;;0.28;;
43311;SDS011;30041;48.300;16.352;2024-02-16T03:00:10;0.35;;;0.17;;
43311;SDS011;30041;48.300;16.352;2024-02-16T03:02:39;0.50;;;0.30;;
43311;SDS011;30041;48.300;16.352;2024-02-16T03:05:06;0.32;;;0.30;;
43311;SDS011;30041;48.300;16.352;2024-02-16T03:07:32;0.30;;;0.30;;
43311;SDS011;30041;48.300;16.352;2024-02-16T03:09:58;0.20;;;0.20;;
43311;SDS011;30041;48.300;16.352;2024-02-16T03:12:24;0.20;;;0.20;;
43311;SDS011;30041;48.300;16.352;2024-02-16T03:14:50;0.50;;;0.22;;
43311;SDS011;30041;48.300;16.352;2024-02-16T03:17:17;0.30;;;0.30;;
43311;SDS011;30041;48.300;16.352;2024-02-16T03:19:42;0.40;;;0.32;;
43311;SDS011;30041;48.300;16.352;2024-02-16T03:22:08;0.30;;;0.30;;
43311;SDS011;30041;48.300;16.352;2024-02-16T03:24:34;0.38;;;0.30;;
43311;SDS011;30041;48.300;16.352;2024-02-16T03:26:59;0.32;;;0.30;;
43311;SDS011;30041;48.300;16.352;2024-02-16T03:29:26;0.52;;;0.40;;
43311;SDS011;30041;48.300;16.352;2024-02-16T03:31:52;0.20;;;0.20;;
43311;SDS011;30041;48.300;16.352;2024-02-16T03:34:17;0.20;;;0.20;;
43311;SDS011;30041;48.300;16.352;2024-02-16T03:36:43;0.47;;;0.28;;
43311;SDS011;30041;48.300;16.352;2024-02-16T03:39:09;0.43;;;0.38;;
43311;SDS011;30041;48.300;16.352;2024-02-16T03:41:34;0.25;;;0.22;;
43311;SDS011;30041;48.300;16.352;2024-02-16T03:44:00;0.47;;;0.30;;
43311;SDS011;30041;48.300;16.352;2024-02-16T03:46:26;0.47;;;0.28;;
43311;SDS011;30041;48.300;16.352;2024-02-16T03:48:52;0.43;;;0.35;;
43311;SDS011;30041;48.300;16.352;2024-02-16T03:51:18;0.30;;;0.22;;
43311;SDS011;30041;48.300;16.352;2024-02-16T03:53:44;0.22;;;0.20;;
43311;SDS011;30041;48.300;16.352;2024-02-16T03:56:11;0.38;;;0.30;;
43311;SDS011;30041;48.300;16.352;2024-02-16T03:58:37;0.45;;;0.30;;
43311;SDS011;30041;48.300;16.352;2024-02-16T04:01:03;0.45;;;0.40;;
43311;SDS011;30041;48.300;16.352;2024-02-16T04:03:29;0.82;;;0.32;;
43311;SDS011;30041;48.300;16.352;2024-02-16T04:05:55;0.25;;;0.25;;
43311;SDS011;30041;48.300;16.352;2024-02-16T04:08:21;0.30;;;0.30;;
43311;SDS011;30041;48.300;16.352;2024-02-16T04:10:46;0.28;;;0.20;;
43311;SDS011;30041;48.300;16.352;2024-02-16T04:13:12;0.40;;;0.30;;
43311;SDS011;30041;48.300;16.352;2024-02-16T04:15:38;0.60;;;0.30;;
43311;SDS011;30041;48.300;16.352;2024-02-16T04:18:04;0.20;;;0.20;;
43311;SDS011;30041;48.300;16.352;2024-02-16T04:20:30;0.40;;;0.30;;
43311;SDS011;30041;48.300;16.352;2024-02-16T04:22:56;0.30;;;0.30;;
43311;SDS011;30041;48.300;16.352;2024-02-16T04:25:22;0.47;;;0.30;;
43311;SDS011;30041;48.300;16.352;2024-02-16T04:27:47;0.30;;;0.30;;
43311;SDS011;30041;48.300;16.352;2024-02-16T04:30:13;0.38;;;0.22;;
43311;SDS011;30041;48.300;16.352;2024-02-16T04:32:39;0.30;;;0.20;;
43311;SDS011;30041;48.300;16.352;2024-02-16T04:35:05;0.40;;;0.32;;
43311;SDS011;30041;48.300;16.352;2024-02-16T04:37:33;0.35;;;0.30;;
43311;SDS011;30041;48.300;16.352;2024-02-16T04:39:59;0.20;;;0.20;;
43311;SDS011;30041;48.300;16.352;2024-02-16T04:42:25;0.60;;;0.30;;
43311;SDS011;30041;48.300;16.352;2024-02-16T04:44:51;0.30;;;0.28;;
43311;SDS011;30041;48.300;16.352;2024-02-16T04:47:16;0.30;;;0.20;;
43311;SDS011;30041;48.300;16.352;2024-02-16T04:49:43;0.30;;;0.30;;
43311;SDS011;30041;48.300;16.352;2024-02-16T04:52:09;0.50;;;0.30;;
43311;SDS011;30041;48.300;16.352;2024-02-16T04:54:34;0.68;;;0.28;;
43311;SDS011;30041;48.300;16.352;2024-02-16T04:57:00;0.30;;;0.30;;
43311;SDS011;30041;48.300;16.352;2024-02-16T04:59:26;0.55;;;0.40;;
43311;SDS011;30041;48.300;16.352;2024-02-16T05:01:51;0.40;;;0.30;;
43311;SDS011;30041;48.300;16.352;2024-02-16T05:04:17;0.30;;;0.25;;
43311;SDS011;30041;48.300;16.352;2024-02-16T05:06:43;0.75;;;0.40;;
43311;SDS011;30041;48.300;16.352;2024-02-16T05:09:09;0.50;;;0.40;;
43311;SDS011;30041;48.300;16.352;2024-02-16T05:11:35;0.45;;;0.30;;
43311;SDS011;30041;48.300;16.352;2024-02-16T05:14:00;0.30;;;0.30;;
43311;SDS011;30041;48.300;16.352;2024-02-16T05:16:27;0.60;;;0.30;;
43311;SDS011;30041;48.300;16.352;2024-02-16T05:18:55;0.50;;;0.30;;
43311;SDS011;30041;48.300;16.352;2024-02-16T05:21:20;0.30;;;0.30;;
43311;SDS011;30041;48.300;16.352;2024-02-16T05:23:46;0.38;;;0.38;;
43311;SDS011;30041;48.300;16.352;2024-02-16T05:26:14;0.77;;;0.40;;
43311;SDS011;30041;48.300;16.352;2024-02-16T05:28:39;0.43;;;0.30;;
43311;SDS011;30041;48.300;16.352;2024-02-16T05:31:15;1.05;;;0.45;;
43311;SDS011;30041;48.300;16.352;2024-02-16T05:33:48;0.40;;;0.30;;
43311;SDS011;30041;48.300;16.352;2024-02-16T05:36:20;0.40;;;0.40;;
43311;SDS011;30041;48.300;16.352;2024-02-16T05:38:47;0.25;;;0.25;;
43311;SDS011;30041;48.300;16.352;2024-02-16T05:41:12;0.60;;;0.25;;
43311;SDS011;30041;48.300;16.352;2024-02-16T05:43:38;0.40;;;0.20;;
43311;SDS011;30041;48.300;16.352;2024-02-16T05:46:04;0.70;;;0.38;;
43311;SDS011;30041;48.300;16.352;2024-02-16T05:48:30;0.85;;;0.35;;
43311;SDS011;30041;48.300;16.352;2024-02-16T05:50:57;0.50;;;0.40;;
43311;SDS011;30041;48.300;16.352;2024-02-16T05:53:25;0.32;;;0.22;;
43311;SDS011;30041;48.300;16.352;2024-02-16T05:55:51;0.30;;;0.22;;
43311;SDS011;30041;48.300;16.352;2024-02-16T05:58:17;0.43;;;0.38;;
43311;SDS011;30041;48.300;16.352;2024-02-16T06:00:43;0.32;;;0.30;;
43311;SDS011;30041;48.300;16.352;2024-02-16T06:03:09;5.20;;;1.88;;
43311;SDS011;30041;48.300;16.352;2024-02-16T06:05:34;6.05;;;2.38;;
43311;SDS011;30041;48.300;16.352;2024-02-16T06:08:00;6.82;;;2.20;;
43311;SDS011;30041;48.300;16.352;2024-02-16T06:10:26;5.55;;;2.45;;
43311;SDS011;30041;48.300;16.352;2024-02-16T06:12:52;5.40;;;2.50;;
43311;SDS011;30041;48.300;16.352;2024-02-16T06:15:17;12.90;;;3.30;;
43311;SDS011;30041;48.300;16.352;2024-02-16T06:17:43;5.50;;;2.40;;
43311;SDS011;30041;48.300;16.352;2024-02-16T06:20:09;7.40;;;2.70;;
43311;SDS011;30041;48.300;16.352;2024-02-16T06:22:35;6.88;;;2.65;;
43311;SDS011;30041;48.300;16.352;2024-02-16T06:25:01;6.32;;;2.58;;
43311;SDS011;30041;48.300;16.352;2024-02-16T06:27:27;6.90;;;2.90;;
43311;SDS011;30041;48.300;16.352;2024-02-16T06:29:53;8.18;;;2.85;;
43311;SDS011;30041;48.300;16.352;2024-02-16T06:32:19;10.90;;;2.90;;
43311;SDS011;30041;48.300;16.352;2024-02-16T06:34:45;7.47;;;2.78;;
43311;SDS011;30041;48.300;16.352;2024-02-16T06:37:11;9.90;;;2.88;;
43311;SDS011;30041;48.300;16.352;2024-02-16T06:39:39;5.10;;;2.65;;
43311;SDS011;30041;48.300;16.352;2024-02-16T06:42:05;8.50;;;3.00;;
43311;SDS011;30041;48.300;16.352;2024-02-16T06:44:31;6.53;;;3.13;;
43311;SDS011;30041;48.300;16.352;2024-02-16T06:46:57;5.47;;;3.10;;
43311;SDS011;30041;48.300;16.352;2024-02-16T06:49:22;9.13;;;3.08;;
43311;SDS011;30041;48.300;16.352;2024-02-16T06:51:48;6.63;;;3.00;;
43311;SDS011;30041;48.300;16.352;2024-02-16T06:54:14;7.30;;;2.67;;
43311;SDS011;30041;48.300;16.352;2024-02-16T06:56:40;7.00;;;2.78;;
43311;SDS011;30041;48.300;16.352;2024-02-16T06:59:05;6.18;;;3.00;;
43311;SDS011;30041;48.300;16.352;2024-02-16T07:01:31;10.20;;;3.05;;
43311;SDS011;30041;48.300;16.352;2024-02-16T07:03:57;6.25;;;2.80;;
43311;SDS011;30041;48.300;16.352;2024-02-16T07:06:23;6.55;;;2.95;;
43311;SDS011;30041;48.300;16.352;2024-02-16T07:08:48;7.97;;;3.00;;
43311;SDS011;30041;48.300;16.352;2024-02-16T07:11:14;5.57;;;2.40;;
43311;SDS011;30041;48.300;16.352;2024-02-16T07:13:40;6.57;;;2.67;;
43311;SDS011;30041;48.300;16.352;2024-02-16T07:16:06;4.53;;;2.60;;
43311;SDS011;30041;48.300;16.352;2024-02-16T07:18:32;5.22;;;2.70;;
43311;SDS011;30041;48.300;16.352;2024-02-16T07:20:59;7.97;;;2.63;;
43311;SDS011;30041;48.300;16.352;2024-02-16T07:23:25;5.22;;;2.70;;
43311;SDS011;30041;48.300;16.352;2024-02-16T07:25:51;5.43;;;2.70;;
43311;SDS011;30041;48.300;16.352;2024-02-16T07:28:17;6.30;;;3.03;;
43311;SDS011;30041;48.300;16.352;2024-02-16T07:31:01;5.65;;;2.70;;
43311;SDS011;30041;48.300;16.352;2024-02-16T07:33:45;7.38;;;2.70;;
43311;SDS011;30041;48.300;16.352;2024-02-16T07:36:11;3.90;;;2.45;;
43311;SDS011;30041;48.300;16.352;2024-02-16T07:38:55;4.57;;;2.80;;
43311;SDS011;30041;48.300;16.352;2024-02-16T07:41:39;3.83;;;2.60;;
43311;SDS011;30041;48.300;16.352;2024-02-16T07:44:24;4.63;;;2.33;;
43311;SDS011;30041;48.300;16.352;2024-02-16T07:47:07;3.90;;;2.58;;
43311;SDS011;30041;48.300;16.352;2024-02-16T08:03:19;5.00;;;2.72;;
43311;SDS011;30041;48.300;16.352;2024-02-16T08:05:45;6.32;;;2.97;;
43311;SDS011;30041;48.300;16.352;2024-02-16T08:08:10;4.70;;;2.40;;
43311;SDS011;30041;48.300;16.352;2024-02-16T08:10:36;5.65;;;3.00;;
43311;SDS011;30041;48.300;16.352;2024-02-16T08:13:02;8.02;;;2.70;;
43311;SDS011;30041;48.300;16.352;2024-02-16T08:15:28;6.75;;;2.42;;
43311;SDS011;30041;48.300;16.352;2024-02-16T08:17:53;7.60;;;2.50;;
43311;SDS011;30041;48.300;16.352;2024-02-16T08:20:19;7.55;;;2.63;;
43311;SDS011;30041;48.300;16.352;2024-02-16T08:22:45;5.20;;;2.55;;
43311;SDS011;30041;48.300;16.352;2024-02-16T08:25:11;4.30;;;2.30;;
43311;SDS011;30041;48.300;16.352;2024-02-16T08:27:36;5.15;;;2.35;;
43311;SDS011;30041;48.300;16.352;2024-02-16T08:30:02;6.40;;;2.83;;
43311;SDS011;30041;48.300;16.352;2024-02-16T08:32:28;5.97;;;2.60;;
43311;SDS011;30041;48.300;16.352;2024-02-16T08:34:54;5.22;;;2.50;;
43311;SDS011;30041;48.300;16.352;2024-02-16T08:37:20;3.60;;;2.38;;
43311;SDS011;30041;48.300;16.352;2024-02-16T08:39:45;4.28;;;2.53;;
43311;SDS011;30041;48.300;16.352;2024-02-16T08:42:11;5.10;;;2.50;;
43311;SDS011;30041;48.300;16.352;2024-02-16T08:44:37;7.82;;;2.70;;
43311;SDS011;30041;48.300;16.352;2024-02-16T08:47:03;5.63;;;2.90;;
43311;SDS011;30041;48.300;16.352;2024-02-16T08:49:28;3.85;;;2.28;;
43311;SDS011;30041;48.300;16.352;2024-02-16T08:51:54;3.65;;;2.10;;
43311;SDS011;30041;48.300;16.352;2024-02-16T08:54:21;5.25;;;2.75;;
43311;SDS011;30041;48.300;16.352;2024-02-16T08:56:47;4.28;;;2.20;;
43311;SDS011;30041;48.300;16.352;2024-02-16T08:59:13;4.13;;;2.55;;
43311;SDS011;30041;48.300;16.352;2024-02-16T09:01:39;6.70;;;2.38;;
43311;SDS011;30041;48.300;16.352;2024-02-16T09:04:05;4.13;;;2.60;;
43311;SDS011;30041;48.300;16.352;2024-02-16T09:06:31;5.70;;;2.40;;
43311;SDS011;30041;48.300;16.352;2024-02-16T09:08:57;4.93;;;2.28;;
43311;SDS011;30041;48.300;16.352;2024-02-16T09:11:23;5.68;;;2.30;;
43311;SDS011;30041;48.300;16.352;2024-02-16T09:13:49;7.35;;;2.45;;
43311;SDS011;30041;48.300;16.352;2024-02-16T09:16:15;6.72;;;2.40;;
43311;SDS011;30041;48.300;16.352;2024-02-16T09:18:41;4.00;;;2.30;;
43311;SDS011;30041;48.300;16.352;2024-02-16T09:21:07;4.63;;;2.28;;
43311;SDS011;30041;48.300;16.352;2024-02-16T09:23:33;6.30;;;2.40;;
43311;SDS011;30041;48.300;16.352;2024-02-16T09:25:59;3.45;;;2.03;;
43311;SDS011;30041;48.300;16.352;2024-02-16T09:28:26;4.88;;;3.13;;
43311;SDS011;30041;48.300;16.352;2024-02-16T09:30:53;10.50;;;4.05;;
43311;SDS011;30041;48.300;16.352;2024-02-16T09:33:20;13.15;;;3.10;;
43311;SDS011;30041;48.300;16.352;2024-02-16T09:35:46;6.47;;;3.25;;
43311;SDS011;30041;48.300;16.352;2024-02-16T09:38:11;7.47;;;3.55;;
43311;SDS011;30041;48.300;16.352;2024-02-16T09:40:37;8.75;;;4.00;;
43311;SDS011;30041;48.300;16.352;2024-02-16T09:43:03;8.32;;;3.67;;
43311;SDS011;30041;48.300;16.352;2024-02-16T09:45:29;9.68;;;3.70;;
43311;SDS011;30041;48.300;16.352;2024-02-16T09:47:55;6.50;;;3.60;;
43311;SDS011;30041;48.300;16.352;2024-02-16T09:50:23;5.60;;;3.78;;
43311;SDS011;30041;48.300;16.352;2024-02-16T09:52:49;7.40;;;3.80;;
43311;SDS011;30041;48.300;16.352;2024-02-16T09:55:16;5.97;;;3.72;;
43311;SDS011;30041;48.300;16.352;2024-02-16T09:57:45;5.80;;;3.42;;
43311;SDS011;30041;48.300;16.352;2024-02-16T10:00:11;6.60;;;3.40;;
43311;SDS011;30041;48.300;16.352;2024-02-16T10:02:41;6.90;;;3.45;;
43311;SDS011;30041;48.300;16.352;2024-02-16T10:05:14;6.43;;;3.15;;
43311;SDS011;30041;48.300;16.352;2024-02-16T10:07:44;9.05;;;3.88;;
43311;SDS011;30041;48.300;16.352;2024-02-16T10:10:22;8.40;;;3.20;;
43311;SDS011;30041;48.300;16.352;2024-02-16T10:13:05;6.30;;;3.20;;
43311;SDS011;30041;48.300;16.352;2024-02-16T10:15:32;7.80;;;2.95;;
43311;SDS011;30041;48.300;16.352;2024-02-16T10:18:07;9.07;;;3.17;;
43311;SDS011;30041;48.300;16.352;2024-02-16T10:20:33;7.45;;;3.22;;
43311;SDS011;30041;48.300;16.352;2024-02-16T10:23:06;11.55;;;3.38;;
43311;SDS011;30041;48.300;16.352;2024-02-16T10:25:36;7.18;;;3.20;;
43311;SDS011;30041;48.300;16.352;2024-02-16T10:28:04;7.47;;;3.28;;
43311;SDS011;30041;48.300;16.352;2024-02-16T10:30:37;6.20;;;3.28;;
43311;SDS011;30041;48.300;16.352;2024-02-16T10:33:04;7.72;;;3.40;;
43311;SDS011;30041;48.300;16.352;2024-02-16T10:35:31;11.13;;;3.58;;
43311;SDS011;30041;48.300;16.352;2024-02-16T10:38:01;9.05;;;2.97;;
43311;SDS011;30041;48.300;16.352;2024-02-16T10:40:37;4.85;;;3.00;;
43311;SDS011;30041;48.300;16.352;2024-02-16T10:43:07;10.63;;;3.10;;
43311;SDS011;30041;48.300;16.352;2024-02-16T10:45:34;7.75;;;3.20;;
43311;SDS011;30041;48.300;16.352;2024-02-16T10:48:04;9.70;;;3.00;;
43311;SDS011;30041;48.300;16.352;2024-02-16T10:50:31;6.38;;;2.63;;
43311;SDS011;30041;48.300;16.352;2024-02-16T10:53:00;5.85;;;3.00;;
43311;SDS011;30041;48.300;16.352;2024-02-16T10:58:00;11.00;;;2.97;;
43311;SDS011;30041;48.300;16.352;2024-02-16T11:00:26;7.05;;;2.80;;
43311;SDS011;30041;48.300;16.352;2024-02-16T11:02:53;6.25;;;2.65;;
43311;SDS011;30041;48.300;16.352;2024-02-16T11:05:19;6.22;;;3.10;;
43311;SDS011;30041;48.300;16.352;2024-02-16T11:07:45;7.20;;;3.15;;
43311;SDS011;30041;48.300;16.352;2024-02-16T11:10:14;9.45;;;2.90;;
43311;SDS011;30041;48.300;16.352;2024-02-16T11:12:42;5.53;;;2.50;;
43311;SDS011;30041;48.300;16.352;2024-02-16T11:15:10;8.75;;;2.65;;
43311;SDS011;30041;48.300;16.352;2024-02-16T11:17:35;4.63;;;2.50;;
43311;SDS011;30041;48.300;16.352;2024-02-16T11:20:01;3.15;;;2.13;;
43311;SDS011;30041;48.300;16.352;2024-02-16T11:22:27;5.95;;;2.53;;
43311;SDS011;30041;48.300;16.352;2024-02-16T11:24:53;7.00;;;2.10;;
43311;SDS011;30041;48.300;16.352;2024-02-16T11:27:19;8.30;;;2.85;;
43311;SDS011;30041;48.300;16.352;2024-02-16T11:29:45;6.95;;;2.22;;
43311;SDS011;30041;48.300;16.352;2024-02-16T11:32:11;5.60;;;2.38;;
43311;SDS011;30041;48.300;16.352;2024-02-16T11:34:37;8.02;;;2.58;;
43311;SDS011;30041;48.300;16.352;2024-02-16T11:37:03;7.28;;;2.70;;
43311;SDS011;30041;48.300;16.352;2024-02-16T11:39:30;7.28;;;2.40;;
43311;SDS011;30041;48.300;16.352;2024-02-16T11:42:06;7.20;;;2.78;;
43311;SDS011;30041;48.300;16.352;2024-02-16T11:44:33;7.15;;;2.38;;
43311;SDS011;30041;48.300;16.352;2024-02-16T11:47:01;7.60;;;2.58;;
43311;SDS011;30041;48.300;16.352;2024-02-16T11:49:28;9.02;;;2.80;;
43311;SDS011;30041;48.300;16.352;2024-02-16T11:51:55;5.75;;;2.22;;
43311;SDS011;30041;48.300;16.352;2024-02-16T11:54:21;8.30;;;2.22;;
43311;SDS011;30041;48.300;16.352;2024-02-16T11:56:47;9.15;;;2.67;;
43311;SDS011;30041;48.300;16.352;2024-02-16T11:59:14;6.32;;;2.40;;
43311;SDS011;30041;48.300;16.352;2024-02-16T12:01:56;10.38;;;3.08;;
43311;SDS011;30041;48.300;16.352;2024-02-16T12:04:24;6.82;;;2.30;;
43311;SDS011;30041;48.300;16.352;2024-02-16T12:06:51;8.35;;;2.45;;
43311;SDS011;30041;48.300;16.352;2024-02-16T12:09:24;7.72;;;2.70;;
43311;SDS011;30041;48.300;16.352;2024-02-16T12:11:52;5.32;;;2.45;;
43311;SDS011;30041;48.300;16.352;2024-02-16T12:14:19;6.85;;;2.30;;
43311;SDS011;30041;48.300;16.352;2024-02-16T12:16:50;4.55;;;2.33;;
43311;SDS011;30041;48.300;16.352;2024-02-16T12:19:20;5.28;;;2.65;;
43311;SDS011;30041;48.300;16.352;2024-02-16T12:21:50;6.45;;;2.72;;
43311;SDS011;30041;48.300;16.352;2024-02-16T12:24:21;6.45;;;2.60;;
43311;SDS011;30041;48.300;16.352;2024-02-16T12:26:47;5.57;;;2.25;;
43311;SDS011;30041;48.300;16.352;2024-02-16T12:29:13;5.90;;;2.70;;
43311;SDS011;30041;48.300;16.352;2024-02-16T12:31:42;7.05;;;2.60;;
43311;SDS011;30041;48.300;16.352;2024-02-16T12:34:10;7.53;;;2.50;;
43311;SDS011;30041;48.300;16.352;2024-02-16T12:36:36;6.45;;;2.65;;
43311;SDS011;30041;48.300;16.352;2024-02-16T12:39:03;4.65;;;2.20;;
43311;SDS011;30041;48.300;16.352;2024-02-16T12:41:33;5.57;;;2.60;;
43311;SDS011;30041;48.300;16.352;2024-02-16T12:43:58;7.65;;;2.33;;
43311;SDS011;30041;48.300;16.352;2024-02-16T12:46:24;4.60;;;2.25;;
43311;SDS011;30041;48.300;16.352;2024-02-16T12:48:50;4.13;;;2.00;;
43311;SDS011;30041;48.300;16.352;2024-02-16T12:51:16;3.53;;;2.10;;
43311;SDS011;30041;48.300;16.352;2024-02-16T12:53:42;4.53;;;2.20;;
43311;SDS011;30041;48.300;16.352;2024-02-16T12:56:08;4.82;;;2.17;;
43311;SDS011;30041;48.300;16.352;2024-02-16T12:58:37;3.85;;;2.15;;
43311;SDS011;30041;48.300;16.352;2024-02-16T13:01:04;4.15;;;1.92;;
43311;SDS011;30041;48.300;16.352;2024-02-16T13:03:35;4.55;;;2.28;;
43311;SDS011;30041;48.300;16.352;2024-02-16T13:06:02;4.40;;;2.40;;
43311;SDS011;30041;48.300;16.352;2024-02-16T13:08:28;6.20;;;2.33;;
43311;SDS011;30041;48.300;16.352;2024-02-16T13:10:55;5.07;;;2.22;;
43311;SDS011;30041;48.300;16.352;2024-02-16T13:13:22;6.28;;;2.58;;
43311;SDS011;30041;48.300;16.352;2024-02-16T13:15:48;7.35;;;2.72;;
43311;SDS011;30041;48.300;16.352;2024-02-16T13:18:14;5.60;;;2.95;;
43311;SDS011;30041;48.300;16.352;2024-02-16T13:20:40;7.75;;;3.20;;
43311;SDS011;30041;48.300;16.352;2024-02-16T13:23:07;5.10;;;2.85;;
43311;SDS011;30041;48.300;16.352;2024-02-16T13:25:32;8.52;;;3.20;;
43311;SDS011;30041;48.300;16.352;2024-02-16T13:27:58;6.90;;;3.25;;
43311;SDS011;30041;48.300;16.352;2024-02-16T13:30:24;3.72;;;2.65;;
43311;SDS011;30041;48.300;16.352;2024-02-16T13:32:49;17.90;;;2.72;;
43311;SDS011;30041;48.300;16.352;2024-02-16T13:35:15;7.80;;;2.83;;
43311;SDS011;30041;48.300;16.352;2024-02-16T13:37:41;6.75;;;2.63;;
43311;SDS011;30041;48.300;16.352;2024-02-16T13:40:07;6.97;;;2.88;;
43311;SDS011;30041;48.300;16.352;2024-02-16T13:42:33;8.30;;;2.58;;
43311;SDS011;30041;48.300;16.352;2024-02-16T13:44:59;9.88;;;2.72;;
43311;SDS011;30041;48.300;16.352;2024-02-16T13:47:25;6.75;;;2.78;;
43311;SDS011;30041;48.300;16.352;2024-02-16T13:49:50;9.60;;;2.60;;
43311;SDS011;30041;48.300;16.352;2024-02-16T13:52:16;8.30;;;2.58;;
43311;SDS011;30041;48.300;16.352;2024-02-16T13:54:42;9.05;;;2.80;;
43311;SDS011;30041;48.300;16.352;2024-02-16T13:57:08;9.73;;;2.50;;
43311;SDS011;30041;48.300;16.352;2024-02-16T13:59:33;6.55;;;2.72;;
43311;SDS011;30041;48.300;16.352;2024-02-16T14:01:59;7.22;;;2.83;;
43311;SDS011;30041;48.300;16.352;2024-02-16T14:04:26;5.63;;;2.65;;
43311;SDS011;30041;48.300;16.352;2024-02-16T14:06:52;5.53;;;2.60;;
43311;SDS011;30041;48.300;16.352;2024-02-16T14:09:18;5.53;;;2.22;;
43311;SDS011;30041;48.300;16.352;2024-02-16T14:11:47;10.13;;;2.60;;
43311;SDS011;30041;48.300;16.352;2024-02-16T14:14:13;17.67;;;2.70;;
43311;SDS011;30041;48.300;16.352;2024-02-16T14:16:38;8.02;;;2.70;;
43311;SDS011;30041;48.300;16.352;2024-02-16T14:19:04;5.82;;;2.40;;
43311;SDS011;30041;48.300;16.352;2024-02-16T14:21:30;9.43;;;2.50;;
43311;SDS011;30041;48.300;16.352;2024-02-16T14:23:56;8.45;;;2.25;;
43311;SDS011;30041;48.300;16.352;2024-02-16T14:26:21;7.80;;;2.50;;
43311;SDS011;30041;48.300;16.352;2024-02-16T14:28:47;7.07;;;2.33;;
43311;SDS011;30041;48.300;16.352;2024-02-16T14:31:13;5.25;;;2.05;;
43311;SDS011;30041;48.300;16.352;2024-02-16T14:33:39;5.63;;;2.10;;
43311;SDS011;30041;48.300;16.352;2024-02-16T14:36:05;9.77;;;2.47;;
43311;SDS011;30041;48.300;16.352;2024-02-16T14:38:31;4.22;;;2.50;;
43311;SDS011;30041;48.300;16.352;2024-02-16T14:40:57;7.20;;;2.40;;
43311;SDS011;30041;48.300;16.352;2024-02-16T14:43:23;6.68;;;2.40;;
43311;SDS011;30041;48.300;16.352;2024-02-16T14:45:48;5.40;;;2.53;;